createdAt,value
2016-07-20T00:00:06.292Z,959.18
2016-07-20T00:01:06.281Z,959.16
2016-07-20T00:02:06.298Z,959.16
2016-07-20T00:03:06.272Z,959.16
2016-07-20T00:04:06.267Z,959.17
2016-07-20T00:05:06.265Z,959.16
2016-07-20T00:06:06.258Z,959.14
2016-07-20T00:07:06.258Z,959.13
2016-07-20T00:08:06.233Z,959.15
2016-07-20T00:09:06.232Z,959.16
2016-07-20T00:10:06.262Z,959.15
2016-07-20T00:11:06.235Z,959.14
2016-07-20T00:12:06.222Z,959.13
2016-07-20T00:13:06.215Z,959.13
2016-07-20T00:14:06.216Z,959.12
2016-07-20T00:15:06.209Z,959.11
2016-07-20T00:16:06.204Z,959.14
2016-07-20T00:17:06.202Z,959.1
2016-07-20T00:18:06.196Z,959.13
2016-07-20T00:19:06.192Z,959.12
2016-07-20T00:20:06.197Z,959.1
2016-07-20T00:21:06.214Z,959.09
2016-07-20T00:22:06.189Z,959.13
2016-07-20T00:23:06.186Z,959.1
2016-07-20T00:24:06.173Z,959.09
2016-07-20T00:25:06.179Z,959.09
2016-07-20T00:26:06.167Z,959.09
2016-07-20T00:27:06.171Z,959.08
2016-07-20T00:28:06.171Z,959.13
2016-07-20T00:29:06.160Z,959.11
2016-07-20T00:30:06.152Z,959.11
2016-07-20T00:31:06.147Z,959.06
2016-07-20T00:32:06.141Z,959.03
2016-07-20T00:33:06.139Z,959.06
2016-07-20T00:34:06.132Z,959.03
2016-07-20T00:35:06.148Z,959.08
2016-07-20T00:36:06.130Z,959.05
2016-07-20T00:37:06.128Z,959.08
2016-07-20T00:38:06.120Z,959.11
2016-07-20T00:39:06.108Z,959.07
2016-07-20T00:40:06.103Z,959.1
2016-07-20T00:41:06.104Z,959.1
2016-07-20T00:42:06.102Z,959.13
2016-07-20T00:43:06.100Z,959.1
2016-07-20T00:44:06.112Z,959.1
2016-07-20T00:45:06.099Z,959.1
2016-07-20T00:46:06.093Z,959.14
2016-07-20T00:47:06.103Z,959.13
2016-07-20T00:48:06.101Z,959.1
2016-07-20T00:49:06.077Z,959.14
2016-07-20T00:50:06.067Z,959.13
2016-07-20T00:51:06.079Z,959.1
2016-07-20T00:52:06.074Z,959.08
2016-07-20T00:53:06.067Z,959.09
2016-07-20T00:54:06.046Z,959.09
2016-07-20T00:55:06.046Z,959.11
2016-07-20T00:56:06.067Z,959.13
2016-07-20T00:57:06.053Z,959.09
2016-07-20T00:58:06.048Z,959.11
2016-07-20T00:59:06.037Z,959.1
2016-07-20T01:00:06.035Z,959.07
2016-07-20T01:01:06.044Z,959.09
2016-07-20T01:02:06.028Z,959.07
2016-07-20T01:03:06.014Z,959.09
2016-07-20T01:04:06.018Z,959.07
2016-07-20T01:05:06.562Z,959.09
2016-07-20T01:06:06.013Z,959.07
2016-07-20T01:07:06.003Z,959.1
2016-07-20T01:08:05.999Z,959.11
2016-07-20T01:09:05.987Z,959.09
2016-07-20T01:10:05.992Z,959.13
2016-07-20T01:11:05.993Z,959.05
2016-07-20T01:12:05.983Z,959.11
2016-07-20T01:13:05.969Z,959.1
2016-07-20T01:14:05.963Z,959.11
2016-07-20T01:15:05.971Z,959.1
2016-07-20T01:16:05.965Z,959.08
2016-07-20T01:17:05.952Z,959.08
2016-07-20T01:18:05.948Z,959.07
2016-07-20T01:19:05.943Z,959.08
2016-07-20T01:20:05.959Z,959.07
2016-07-20T01:21:05.943Z,959.05
2016-07-20T01:22:05.940Z,959.02
2016-07-20T01:23:05.923Z,959
2016-07-20T01:24:05.925Z,959
2016-07-20T01:25:05.915Z,958.99
2016-07-20T01:26:05.906Z,958.99
2016-07-20T01:27:05.912Z,958.99
2016-07-20T01:28:05.920Z,958.96
2016-07-20T01:29:05.918Z,958.96
2016-07-20T01:30:05.896Z,958.97
2016-07-20T01:31:05.891Z,958.97
2016-07-20T01:32:05.882Z,958.97
2016-07-20T01:33:05.883Z,958.98
2016-07-20T01:34:05.873Z,959
2016-07-20T01:35:05.867Z,958.95
2016-07-20T01:36:05.866Z,958.96
2016-07-20T01:37:05.861Z,958.94
2016-07-20T01:38:05.856Z,958.91
2016-07-20T01:39:05.858Z,958.91
2016-07-20T01:40:05.847Z,958.88
2016-07-20T01:41:05.845Z,958.93
2016-07-20T01:42:05.843Z,958.92
2016-07-20T01:43:05.835Z,958.93
2016-07-20T01:44:05.829Z,958.9
2016-07-20T01:45:05.833Z,958.91
2016-07-20T01:46:05.827Z,958.91
2016-07-20T01:47:05.832Z,958.9
2016-07-20T01:48:05.822Z,958.93
2016-07-20T01:49:05.819Z,958.92
2016-07-20T01:50:05.804Z,958.93
2016-07-20T01:51:05.866Z,958.87
2016-07-20T01:52:05.806Z,958.93
2016-07-20T01:53:05.802Z,958.95
2016-07-20T01:54:05.787Z,958.93
2016-07-20T01:55:05.824Z,958.92
2016-07-20T01:56:05.779Z,958.94
2016-07-20T01:57:05.795Z,958.89
2016-07-20T01:58:05.783Z,958.93
2016-07-20T01:59:05.773Z,958.92
2016-07-20T02:00:05.764Z,958.91
2016-07-20T02:01:05.775Z,958.94
2016-07-20T02:02:05.753Z,958.96
2016-07-20T02:03:05.761Z,958.96
2016-07-20T02:04:05.777Z,958.9
2016-07-20T02:05:05.762Z,958.92
2016-07-20T02:06:05.729Z,958.93
2016-07-20T02:07:05.745Z,958.95
2016-07-20T02:08:05.734Z,958.91
2016-07-20T02:09:05.723Z,958.9
2016-07-20T02:10:05.713Z,958.91
2016-07-20T02:11:05.730Z,958.9
2016-07-20T02:12:05.715Z,958.88
2016-07-20T02:13:05.712Z,958.92
2016-07-20T02:14:05.700Z,958.86
2016-07-20T02:15:05.702Z,958.86
2016-07-20T02:16:05.698Z,958.88
2016-07-20T02:17:05.687Z,958.86
2016-07-20T02:18:05.687Z,958.85
2016-07-20T02:19:05.918Z,958.87
2016-07-20T02:20:05.695Z,958.84
2016-07-20T02:21:05.665Z,958.86
2016-07-20T02:22:05.862Z,958.86
2016-07-20T02:23:05.663Z,958.82
2016-07-20T02:24:05.652Z,958.82
2016-07-20T02:25:05.638Z,958.86
2016-07-20T02:26:05.634Z,958.81
2016-07-20T02:27:05.629Z,958.8
2016-07-20T02:28:05.636Z,958.82
2016-07-20T02:29:05.637Z,958.81
2016-07-20T02:30:05.635Z,958.82
2016-07-20T02:31:05.617Z,958.83
2016-07-20T02:32:05.608Z,958.86
2016-07-20T02:33:05.618Z,958.8
2016-07-20T02:34:05.599Z,958.82
2016-07-20T02:35:05.661Z,958.81
2016-07-20T02:36:05.583Z,958.83
2016-07-20T02:37:05.584Z,958.8
2016-07-20T02:38:05.585Z,958.79
2016-07-20T02:39:05.579Z,958.78
2016-07-20T02:40:05.576Z,958.74
2016-07-20T02:41:05.829Z,958.78
2016-07-20T02:42:05.559Z,958.76
2016-07-20T02:43:05.557Z,958.79
2016-07-20T02:44:05.544Z,958.77
2016-07-20T02:45:05.544Z,958.75
2016-07-20T02:46:05.544Z,958.74
2016-07-20T02:47:05.543Z,958.74
2016-07-20T02:48:05.535Z,958.77
2016-07-20T02:49:05.530Z,958.74
2016-07-20T02:50:05.530Z,958.74
2016-07-20T02:51:05.541Z,958.71
2016-07-20T02:52:05.534Z,958.71
2016-07-20T02:53:05.507Z,958.69
2016-07-20T02:54:05.537Z,958.71
2016-07-20T02:55:05.500Z,958.71
2016-07-20T02:56:05.495Z,958.69
2016-07-20T02:57:05.487Z,958.71
2016-07-20T02:58:05.477Z,958.69
2016-07-20T02:59:05.481Z,958.69
2016-07-20T03:00:05.470Z,958.66
2016-07-20T03:01:05.510Z,958.73
2016-07-20T03:02:05.456Z,958.69
2016-07-20T03:03:05.456Z,958.7
2016-07-20T03:04:05.667Z,958.68
2016-07-20T03:05:05.446Z,958.73
2016-07-20T03:06:05.441Z,958.69
2016-07-20T03:07:05.432Z,958.69
2016-07-20T03:08:05.433Z,958.69
2016-07-20T03:09:05.470Z,958.72
2016-07-20T03:10:05.419Z,958.72
2016-07-20T03:11:05.418Z,958.72
2016-07-20T03:12:05.426Z,958.76
2016-07-20T03:13:05.443Z,958.72
2016-07-20T03:14:05.430Z,958.73
2016-07-20T03:15:05.412Z,958.75
2016-07-20T03:16:05.413Z,958.76
2016-07-20T03:17:05.425Z,958.74
2016-07-20T03:18:05.414Z,958.69
2016-07-20T03:19:05.444Z,958.71
2016-07-20T03:20:05.412Z,958.74
2016-07-20T03:21:05.469Z,958.77
2016-07-20T03:22:05.394Z,958.74
2016-07-20T03:23:05.358Z,958.74
2016-07-20T03:24:05.350Z,958.78
2016-07-20T03:25:05.352Z,958.78
2016-07-20T03:26:05.341Z,958.76
2016-07-20T03:27:05.341Z,958.79
2016-07-20T03:28:05.337Z,958.76
2016-07-20T03:29:05.334Z,958.79
2016-07-20T03:30:05.340Z,958.76
2016-07-20T03:31:05.319Z,958.75
2016-07-20T03:32:05.310Z,958.79
2016-07-20T03:33:05.305Z,958.79
2016-07-20T03:34:05.339Z,958.78
2016-07-20T03:35:05.338Z,958.76
2016-07-20T03:36:05.314Z,958.72
2016-07-20T03:37:05.289Z,958.77
2016-07-20T03:38:05.276Z,958.76
2016-07-20T03:39:05.273Z,958.77
2016-07-20T03:40:05.549Z,958.76
2016-07-20T03:41:05.278Z,958.76
2016-07-20T03:42:05.335Z,958.74
2016-07-20T03:43:05.250Z,958.74
2016-07-20T03:44:05.249Z,958.75
2016-07-20T03:45:05.270Z,958.76
2016-07-20T03:46:05.268Z,958.75
2016-07-20T03:47:05.242Z,958.78
2016-07-20T03:48:05.232Z,958.78
2016-07-20T03:49:05.220Z,958.78
2016-07-20T03:50:05.219Z,958.83
2016-07-20T03:51:05.212Z,958.8
2016-07-20T03:52:05.217Z,958.77
2016-07-20T03:53:05.466Z,958.76
2016-07-20T03:54:05.213Z,958.76
2016-07-20T03:55:05.208Z,958.75
2016-07-20T03:56:05.200Z,958.74
2016-07-20T03:57:05.186Z,958.76
2016-07-20T03:58:05.182Z,958.76
2016-07-20T03:59:05.174Z,958.72
2016-07-20T04:00:05.171Z,958.68
2016-07-20T04:01:05.165Z,958.67
2016-07-20T04:02:05.162Z,958.71
2016-07-20T04:03:05.161Z,958.69
2016-07-20T04:04:05.157Z,958.69
2016-07-20T04:05:05.150Z,958.65
2016-07-20T04:06:05.140Z,958.62
2016-07-20T04:07:05.138Z,958.66
2016-07-20T04:08:05.134Z,958.64
2016-07-20T04:09:05.131Z,958.62
2016-07-20T04:10:05.133Z,958.66
2016-07-20T04:11:05.160Z,958.68
2016-07-20T04:12:05.116Z,958.65
2016-07-20T04:13:05.179Z,958.65
2016-07-20T04:14:05.096Z,958.66
2016-07-20T04:15:05.099Z,958.69
2016-07-20T04:16:05.095Z,958.68
2016-07-20T04:17:05.087Z,958.7
2016-07-20T04:18:05.091Z,958.7
2016-07-20T04:19:05.081Z,958.67
2016-07-20T04:20:05.084Z,958.66
2016-07-20T04:21:05.111Z,958.67
2016-07-20T04:22:05.075Z,958.68
2016-07-20T04:23:05.332Z,958.66
2016-07-20T04:24:05.073Z,958.67
2016-07-20T04:25:05.092Z,958.7
2016-07-20T04:26:05.052Z,958.68
2016-07-20T04:27:05.051Z,958.68
2016-07-20T04:28:05.040Z,958.64
2016-07-20T04:29:05.036Z,958.65
2016-07-20T04:30:05.032Z,958.67
2016-07-20T04:31:05.022Z,958.7
2016-07-20T04:32:05.083Z,958.69
2016-07-20T04:33:05.026Z,958.7
2016-07-20T04:34:05.021Z,958.7
2016-07-20T04:35:05.023Z,958.7
2016-07-20T04:36:05.048Z,958.67
2016-07-20T04:37:05.001Z,958.7
2016-07-20T04:38:04.992Z,958.71
2016-07-20T04:39:05.000Z,958.72
2016-07-20T04:40:05.010Z,958.67
2016-07-20T04:41:04.981Z,958.7
2016-07-20T04:42:05.008Z,958.71
2016-07-20T04:43:05.238Z,958.7
2016-07-20T04:44:04.972Z,958.7
2016-07-20T04:45:04.997Z,958.64
2016-07-20T04:46:04.961Z,958.67
2016-07-20T04:47:04.981Z,958.7
2016-07-20T04:48:04.994Z,958.7
2016-07-20T04:49:05.203Z,958.65
2016-07-20T04:50:04.957Z,958.69
2016-07-20T04:51:04.935Z,958.67
2016-07-20T04:52:04.939Z,958.7
2016-07-20T04:53:04.979Z,958.64
2016-07-20T04:54:04.957Z,958.67
2016-07-20T04:55:04.935Z,958.69
2016-07-20T04:56:04.961Z,958.69
2016-07-20T04:57:04.970Z,958.69
2016-07-20T04:58:04.971Z,958.69
2016-07-20T04:59:04.910Z,958.67
2016-07-20T05:00:04.889Z,958.67
2016-07-20T05:01:04.889Z,958.66
2016-07-20T05:02:04.893Z,958.69
2016-07-20T05:03:04.891Z,958.64
2016-07-20T05:04:04.911Z,958.64
2016-07-20T05:05:04.914Z,958.65
2016-07-20T05:06:04.888Z,958.65
2016-07-20T05:07:04.860Z,958.61
2016-07-20T05:08:04.858Z,958.65
2016-07-20T05:09:04.854Z,958.67
2016-07-20T05:10:04.848Z,958.61
2016-07-20T05:11:04.848Z,958.62
2016-07-20T05:12:04.844Z,958.62
2016-07-20T05:13:04.852Z,958.64
2016-07-20T05:14:04.867Z,958.62
2016-07-20T05:15:04.841Z,958.6
2016-07-20T05:16:04.853Z,958.6
2016-07-20T05:17:04.852Z,958.59
2016-07-20T05:18:04.869Z,958.59
2016-07-20T05:19:04.816Z,958.63
2016-07-20T05:20:04.813Z,958.56
2016-07-20T05:21:04.812Z,958.59
2016-07-20T05:22:04.834Z,958.59
2016-07-20T05:23:04.816Z,958.56
2016-07-20T05:24:04.834Z,958.59
2016-07-20T05:25:04.793Z,958.58
2016-07-20T05:26:04.791Z,958.58
2016-07-20T05:27:04.813Z,958.6
2016-07-20T05:28:04.814Z,958.6
2016-07-20T05:29:04.783Z,958.55
2016-07-20T05:30:04.776Z,958.6
2016-07-20T05:31:04.767Z,958.57
2016-07-20T05:32:04.789Z,958.57
2016-07-20T05:33:04.807Z,958.52
2016-07-20T05:34:04.792Z,958.54
2016-07-20T05:35:04.786Z,958.54
2016-07-20T05:36:04.763Z,958.47
2016-07-20T05:37:04.774Z,958.47
2016-07-20T05:38:04.781Z,958.47
2016-07-20T05:39:04.824Z,958.45
2016-07-20T05:40:04.767Z,958.42
2016-07-20T05:41:04.735Z,958.42
2016-07-20T05:42:04.728Z,958.38
2016-07-20T05:43:04.782Z,958.39
2016-07-20T05:44:04.742Z,958.38
2016-07-20T05:45:04.741Z,958.33
2016-07-20T05:46:04.755Z,958.36
2016-07-20T05:47:04.740Z,958.4
2016-07-20T05:48:04.719Z,958.36
2016-07-20T05:49:04.734Z,958.37
2016-07-20T05:50:04.739Z,958.36
2016-07-20T05:51:04.733Z,958.36
2016-07-20T05:52:04.711Z,958.36
2016-07-20T05:53:04.715Z,958.29
2016-07-20T05:54:04.708Z,958.29
2016-07-20T05:55:04.738Z,958.31
2016-07-20T05:56:04.699Z,958.3
2016-07-20T05:57:04.683Z,958.34
2016-07-20T05:58:04.680Z,958.29
2016-07-20T05:59:04.678Z,958.3
2016-07-20T06:00:04.711Z,958.28
2016-07-20T06:01:04.696Z,958.27
2016-07-20T06:02:04.682Z,958.29
2016-07-20T06:03:04.699Z,958.29
2016-07-20T06:04:04.668Z,958.28
2016-07-20T06:05:04.654Z,958.35
2016-07-20T06:06:04.659Z,958.34
2016-07-20T06:07:04.654Z,958.33
2016-07-20T06:08:04.669Z,958.35
2016-07-20T06:09:04.666Z,958.34
2016-07-20T06:10:04.655Z,958.36
2016-07-20T06:11:04.661Z,958.32
2016-07-20T06:12:04.650Z,958.33
2016-07-20T06:13:04.636Z,958.31
2016-07-20T06:14:04.631Z,958.32
2016-07-20T06:15:04.654Z,958.34
2016-07-20T06:16:04.660Z,958.33
2016-07-20T06:17:04.704Z,958.35
2016-07-20T06:18:04.632Z,958.33
2016-07-20T06:19:04.634Z,958.31
2016-07-20T06:20:04.626Z,958.33
2016-07-20T06:21:04.644Z,958.33
2016-07-20T06:22:04.611Z,958.38
2016-07-20T06:23:04.611Z,958.35
2016-07-20T06:24:04.650Z,958.38
2016-07-20T06:25:04.653Z,958.37
2016-07-20T06:26:04.628Z,958.29
2016-07-20T06:27:04.625Z,958.28
2016-07-20T06:28:04.622Z,958.27
2016-07-20T06:29:04.599Z,958.27
2016-07-20T06:30:04.603Z,958.3
2016-07-20T06:31:04.612Z,958.31
2016-07-20T06:32:04.610Z,958.28
2016-07-20T06:33:04.588Z,958.31
2016-07-20T06:34:04.593Z,958.3
2016-07-20T06:35:04.608Z,958.32
2016-07-20T06:36:04.619Z,958.3
2016-07-20T06:37:04.864Z,958.28
2016-07-20T06:38:04.649Z,958.31
2016-07-20T06:39:04.591Z,958.31
2016-07-20T06:40:04.632Z,958.26
2016-07-20T06:41:04.575Z,958.28
2016-07-20T06:42:04.571Z,958.3
2016-07-20T06:43:04.566Z,958.31
2016-07-20T06:44:04.570Z,958.3
2016-07-20T06:45:04.566Z,958.3
2016-07-20T06:46:04.843Z,958.3
2016-07-20T06:47:04.596Z,958.27
2016-07-20T06:48:04.575Z,958.26
2016-07-20T06:49:04.588Z,958.24
2016-07-20T06:50:04.553Z,958.28
2016-07-20T06:51:04.555Z,958.27
2016-07-20T06:52:04.553Z,958.28
2016-07-20T06:53:04.551Z,958.25
2016-07-20T06:54:04.560Z,958.28
2016-07-20T06:55:04.554Z,958.3
2016-07-20T06:56:04.551Z,958.33
2016-07-20T06:57:04.547Z,958.34
2016-07-20T06:58:04.556Z,958.29
2016-07-20T06:59:04.571Z,958.32
2016-07-20T07:00:04.572Z,958.36
2016-07-20T07:01:04.565Z,958.37
2016-07-20T07:02:04.542Z,958.5
2016-07-20T07:03:04.558Z,958.51
2016-07-20T07:04:04.569Z,958.51
2016-07-20T07:05:04.552Z,958.5
2016-07-20T07:06:04.555Z,958.46
2016-07-20T07:07:04.816Z,958.49
2016-07-20T07:08:04.586Z,958.47
2016-07-20T07:09:04.648Z,958.48
2016-07-20T07:10:04.637Z,958.47
2016-07-20T07:11:04.572Z,958.5
2016-07-20T07:12:04.563Z,958.58
2016-07-20T07:13:04.569Z,958.54
2016-07-20T07:14:04.594Z,958.56
2016-07-20T07:15:04.582Z,958.6
2016-07-20T07:16:04.587Z,958.64
2016-07-20T07:17:04.601Z,958.68
2016-07-20T07:18:04.644Z,958.73
2016-07-20T07:19:04.622Z,958.9
2016-07-20T07:20:04.623Z,958.83
2016-07-20T07:21:04.683Z,958.89
2016-07-20T07:22:04.637Z,958.92
2016-07-20T07:23:04.643Z,958.62
2016-07-20T07:24:04.672Z,958.29
2016-07-20T07:25:04.653Z,958.26
2016-07-20T07:26:04.680Z,958.2
2016-07-20T07:27:04.695Z,958.17
2016-07-20T07:28:04.689Z,958.16
2016-07-20T07:29:04.712Z,958.19
2016-07-20T07:30:04.719Z,958.19
2016-07-20T07:31:04.696Z,958.18
2016-07-20T07:32:04.709Z,958.12
2016-07-20T07:33:04.727Z,958.16
2016-07-20T07:34:04.750Z,958.17
2016-07-20T07:35:04.732Z,958.15
2016-07-20T07:36:04.782Z,958.22
2016-07-20T07:37:04.796Z,958.16
2016-07-20T07:38:04.775Z,958.18
2016-07-20T07:39:04.784Z,958.16
2016-07-20T07:40:04.820Z,958.19
2016-07-20T07:41:04.799Z,958.18
2016-07-20T07:42:04.810Z,958.16
2016-07-20T07:43:04.889Z,958.19
2016-07-20T07:44:04.830Z,958.17
2016-07-20T07:45:04.842Z,958.19
2016-07-20T07:46:04.853Z,958.2
2016-07-20T07:47:04.868Z,958.22
2016-07-20T07:48:04.875Z,958.2
2016-07-20T07:49:04.906Z,958.12
2016-07-20T07:50:04.924Z,958.17
2016-07-20T07:51:04.915Z,958.14
2016-07-20T07:52:04.962Z,958.12
2016-07-20T07:53:04.955Z,958.11
2016-07-20T07:54:04.947Z,958.15
2016-07-20T07:55:04.958Z,958.2
2016-07-20T07:56:04.968Z,958.16
2016-07-20T07:57:04.985Z,958.19
2016-07-20T07:58:04.997Z,958.21
2016-07-20T07:59:05.006Z,958.21
2016-07-20T08:00:05.032Z,958.22
2016-07-20T08:01:05.053Z,958.22
2016-07-20T08:02:05.076Z,958.17
2016-07-20T08:03:05.058Z,958.17
2016-07-20T08:04:05.074Z,958.15
2016-07-20T08:05:05.092Z,958.16
2016-07-20T08:06:05.093Z,958.19
2016-07-20T08:07:05.106Z,958.07
2016-07-20T08:08:05.144Z,958
2016-07-20T08:09:05.164Z,958
2016-07-20T08:10:05.139Z,957.96
2016-07-20T08:11:05.153Z,957.97
2016-07-20T08:12:05.196Z,957.98
2016-07-20T08:13:05.195Z,957.97
2016-07-20T08:14:05.193Z,957.98
2016-07-20T08:15:05.202Z,958
2016-07-20T08:16:05.206Z,957.98
2016-07-20T08:17:05.234Z,958.02
2016-07-20T08:18:05.262Z,958
2016-07-20T08:19:05.263Z,957.97
2016-07-20T08:20:05.256Z,957.95
2016-07-20T08:21:05.260Z,957.98
2016-07-20T08:22:05.284Z,958.02
2016-07-20T08:23:05.280Z,958
2016-07-20T08:24:05.311Z,957.91
2016-07-20T08:25:05.299Z,957.89
2016-07-20T08:26:05.297Z,957.93
2016-07-20T08:27:05.311Z,957.95
2016-07-20T08:28:05.312Z,957.92
2016-07-20T08:29:05.364Z,957.94
2016-07-20T08:30:05.388Z,957.94
2016-07-20T08:31:05.365Z,957.95
2016-07-20T08:32:05.410Z,957.95
2016-07-20T08:33:05.373Z,957.91
2016-07-20T08:34:05.383Z,957.92
2016-07-20T08:35:05.379Z,957.91
2016-07-20T08:36:05.383Z,957.9
2016-07-20T08:37:05.432Z,957.93
2016-07-20T08:38:05.408Z,957.93
2016-07-20T08:39:05.405Z,957.91
2016-07-20T08:40:05.413Z,957.9
2016-07-20T08:41:05.443Z,957.92
2016-07-20T08:42:05.419Z,957.89
2016-07-20T08:43:05.418Z,957.91
2016-07-20T08:44:05.441Z,957.94
2016-07-20T08:45:05.695Z,957.91
2016-07-20T08:46:05.437Z,957.97
2016-07-20T08:47:05.491Z,957.93
2016-07-20T08:48:05.444Z,957.92
2016-07-20T08:49:05.446Z,957.91
2016-07-20T08:50:05.469Z,957.89
2016-07-20T08:51:05.461Z,957.89
2016-07-20T08:52:05.467Z,957.89
2016-07-20T08:53:05.494Z,957.86
2016-07-20T08:54:05.501Z,957.87
2016-07-20T08:55:05.481Z,957.84
2016-07-20T08:56:05.486Z,957.88
2016-07-20T08:57:05.505Z,957.85
2016-07-20T08:58:05.513Z,957.86
2016-07-20T08:59:05.505Z,957.83
2016-07-20T09:00:05.509Z,957.85
2016-07-20T09:01:05.552Z,957.8
2016-07-20T09:02:05.543Z,957.8
2016-07-20T09:03:05.517Z,957.87
2016-07-20T09:04:05.528Z,957.79
2016-07-20T09:05:05.521Z,957.83
2016-07-20T09:06:05.535Z,957.86
2016-07-20T09:07:05.534Z,957.84
2016-07-20T09:08:05.544Z,957.9
2016-07-20T09:09:05.542Z,957.82
2016-07-20T09:10:05.555Z,957.84
2016-07-20T09:11:05.547Z,957.82
2016-07-20T09:12:05.554Z,957.78
2016-07-20T09:13:05.560Z,957.8
2016-07-20T09:14:05.561Z,957.74
2016-07-20T09:15:05.566Z,957.74
2016-07-20T09:16:05.570Z,957.75
2016-07-20T09:17:05.578Z,957.72
2016-07-20T09:18:05.579Z,957.68
2016-07-20T09:19:05.595Z,957.72
2016-07-20T09:20:05.654Z,957.71
2016-07-20T09:21:05.594Z,957.72
2016-07-20T09:22:05.615Z,957.69
2016-07-20T09:23:05.876Z,957.67
2016-07-20T09:24:05.613Z,957.69
2016-07-20T09:25:05.643Z,957.67
2016-07-20T09:26:05.626Z,957.66
2016-07-20T09:27:05.893Z,957.64
2016-07-20T09:28:05.718Z,957.64
2016-07-20T09:29:05.645Z,957.65
2016-07-20T09:30:05.663Z,957.64
2016-07-20T09:31:05.666Z,957.62
2016-07-20T09:32:05.660Z,957.63
2016-07-20T09:33:05.664Z,957.64
2016-07-20T09:34:05.659Z,957.64
2016-07-20T09:35:05.663Z,957.62
2016-07-20T09:36:05.664Z,957.64
2016-07-20T09:37:05.920Z,957.62
2016-07-20T09:38:05.686Z,957.64
2016-07-20T09:39:05.687Z,957.61
2016-07-20T09:40:05.682Z,957.59
2016-07-20T09:41:05.714Z,957.6
2016-07-20T09:42:05.701Z,957.61
2016-07-20T09:43:05.728Z,957.57
2016-07-20T09:44:05.700Z,957.57
2016-07-20T09:45:05.720Z,957.57
2016-07-20T09:46:05.734Z,957.58
2016-07-20T09:47:05.751Z,957.57
2016-07-20T09:48:05.712Z,957.58
2016-07-20T09:49:05.709Z,957.57
2016-07-20T09:50:05.717Z,957.58
2016-07-20T09:51:05.724Z,957.59
2016-07-20T09:52:05.737Z,957.55
2016-07-20T09:53:05.741Z,957.6
2016-07-20T09:54:05.738Z,957.57
2016-07-20T09:55:05.741Z,957.54
2016-07-20T09:56:05.745Z,957.54
2016-07-20T09:57:05.750Z,957.55
2016-07-20T09:58:05.760Z,957.52
2016-07-20T09:59:05.834Z,957.49
2016-07-20T10:00:05.758Z,957.5
2016-07-20T10:01:05.771Z,957.47
2016-07-20T10:02:05.775Z,957.47
2016-07-20T10:03:05.782Z,957.46
2016-07-20T10:04:06.054Z,957.42
2016-07-20T10:05:05.795Z,957.41
2016-07-20T10:06:05.821Z,957.4
2016-07-20T10:07:05.809Z,957.41
2016-07-20T10:08:05.801Z,957.42
2016-07-20T10:09:05.799Z,957.4
2016-07-20T10:10:05.804Z,957.4
2016-07-20T10:11:05.819Z,957.42
2016-07-20T10:12:05.813Z,957.4
2016-07-20T10:13:05.814Z,957.38
2016-07-20T10:14:05.828Z,957.39
2016-07-20T10:15:05.838Z,957.38
2016-07-20T10:16:05.834Z,957.35
2016-07-20T10:17:05.833Z,957.38
2016-07-20T10:18:05.841Z,957.37
2016-07-20T10:19:05.839Z,957.38
2016-07-20T10:20:05.844Z,957.39
2016-07-20T10:21:05.887Z,957.4
2016-07-20T10:22:05.861Z,957.37
2016-07-20T10:23:05.878Z,957.4
2016-07-20T10:24:05.875Z,957.4
2016-07-20T10:25:06.138Z,957.33
2016-07-20T10:26:05.875Z,957.34
2016-07-20T10:27:05.876Z,957.32
2016-07-20T10:28:05.950Z,957.34
2016-07-20T10:29:05.889Z,957.32
2016-07-20T10:30:05.892Z,957.33
2016-07-20T10:31:05.891Z,957.35
2016-07-20T10:32:05.908Z,957.32
2016-07-20T10:33:05.903Z,957.31
2016-07-20T10:34:05.900Z,957.36
2016-07-20T10:35:05.924Z,957.33
2016-07-20T10:36:05.912Z,957.33
2016-07-20T10:37:05.917Z,957.34
2016-07-20T10:38:05.917Z,957.36
2016-07-20T10:39:05.928Z,957.35
2016-07-20T10:40:05.931Z,957.32
2016-07-20T10:41:05.931Z,957.31
2016-07-20T10:42:05.941Z,957.32
2016-07-20T10:43:05.976Z,957.33
2016-07-20T10:44:05.954Z,957.34
2016-07-20T10:45:05.959Z,957.36
2016-07-20T10:46:05.964Z,957.34
2016-07-20T10:47:05.998Z,957.32
2016-07-20T10:48:05.965Z,957.28
2016-07-20T10:49:05.984Z,957.3
2016-07-20T10:50:05.969Z,957.31
2016-07-20T10:51:05.980Z,957.28
2016-07-20T10:52:05.987Z,957.25
2016-07-20T10:53:05.987Z,957.25
2016-07-20T10:54:05.996Z,957.23
2016-07-20T10:55:06.003Z,957.26
2016-07-20T10:56:06.022Z,957.23
2016-07-20T10:57:06.019Z,957.27
2016-07-20T10:58:06.010Z,957.24
2016-07-20T10:59:06.079Z,957.25
2016-07-20T11:00:06.025Z,957.26
2016-07-20T11:01:06.038Z,957.23
2016-07-20T11:02:06.048Z,957.17
2016-07-20T11:03:06.059Z,957.16
2016-07-20T11:04:06.031Z,957.17
2016-07-20T11:05:06.056Z,957.16
2016-07-20T11:06:06.039Z,957.15
2016-07-20T11:07:06.043Z,957.14
2016-07-20T11:08:06.063Z,957.13
2016-07-20T11:09:06.070Z,957.13
2016-07-20T11:10:06.056Z,957.11
2016-07-20T11:11:06.072Z,957.11
2016-07-20T11:12:06.072Z,957.12
2016-07-20T11:13:06.075Z,957.07
2016-07-20T11:14:06.097Z,957.07
2016-07-20T11:15:06.091Z,957.05
2016-07-20T11:16:06.111Z,957.03
2016-07-20T11:17:06.094Z,957.08
2016-07-20T11:18:06.120Z,957.06
2016-07-20T11:19:06.095Z,957.08
2016-07-20T11:20:06.131Z,957.04
2016-07-20T11:21:06.143Z,957.02
2016-07-20T11:22:06.115Z,957.07
2016-07-20T11:23:06.109Z,957.02
2016-07-20T11:24:06.110Z,957.05
2016-07-20T11:25:06.142Z,957.1
2016-07-20T11:26:06.118Z,957.08
2016-07-20T11:27:06.125Z,957.06
2016-07-20T11:28:06.130Z,957.05
2016-07-20T11:29:06.152Z,957.05
2016-07-20T11:30:06.139Z,957.02
2016-07-20T11:31:06.151Z,957.05
2016-07-20T11:32:06.144Z,957.03
2016-07-20T11:33:06.402Z,957.03
2016-07-20T11:34:06.159Z,956.99
2016-07-20T11:35:06.180Z,957.04
2016-07-20T11:36:06.171Z,957
2016-07-20T11:37:06.182Z,957
2016-07-20T11:38:06.178Z,956.97
2016-07-20T11:39:06.181Z,956.95
2016-07-20T11:40:06.208Z,956.97
2016-07-20T11:41:06.179Z,956.97
2016-07-20T11:42:06.187Z,956.98
2016-07-20T11:43:06.187Z,956.96
2016-07-20T11:44:06.211Z,956.94
2016-07-20T11:45:06.199Z,956.95
2016-07-20T11:46:06.203Z,956.98
2016-07-20T11:47:06.255Z,956.95
2016-07-20T11:48:06.266Z,957
2016-07-20T11:49:06.470Z,956.98
2016-07-20T11:50:06.226Z,956.94
2016-07-20T11:51:06.218Z,956.93
2016-07-20T11:52:06.219Z,956.99
2016-07-20T11:53:06.230Z,956.97
2016-07-20T11:54:06.230Z,956.97
2016-07-20T11:55:06.251Z,956.95
2016-07-20T11:56:06.264Z,956.94
2016-07-20T11:57:06.285Z,956.93
2016-07-20T11:58:06.263Z,956.94
2016-07-20T11:59:06.255Z,956.92
2016-07-20T12:00:06.272Z,956.9
2016-07-20T12:01:06.280Z,956.89
2016-07-20T12:02:06.268Z,956.86
2016-07-20T12:03:06.273Z,956.79
2016-07-20T12:04:06.279Z,956.79
2016-07-20T12:05:06.275Z,956.74
2016-07-20T12:06:06.288Z,956.73
2016-07-20T12:07:06.283Z,956.75
2016-07-20T12:08:06.287Z,956.76
2016-07-20T12:09:06.362Z,956.78
2016-07-20T12:10:06.317Z,956.75
2016-07-20T12:11:06.309Z,956.76
2016-07-20T12:12:06.340Z,956.74
2016-07-20T12:13:06.313Z,956.77
2016-07-20T12:14:06.335Z,956.76
2016-07-20T12:15:06.316Z,956.79
2016-07-20T12:16:06.319Z,956.82
2016-07-20T12:17:06.342Z,956.78
2016-07-20T12:18:06.367Z,956.74
2016-07-20T12:19:06.328Z,956.72
2016-07-20T12:20:06.350Z,956.71
2016-07-20T12:21:06.353Z,956.73
2016-07-20T12:22:06.368Z,956.71
2016-07-20T12:23:06.358Z,956.7
2016-07-20T12:24:06.373Z,956.7
2016-07-20T12:25:06.377Z,956.68
2016-07-20T12:26:06.365Z,956.64
2016-07-20T12:27:06.367Z,956.61
2016-07-20T12:28:06.401Z,956.59
2016-07-20T12:29:06.374Z,956.59
2016-07-20T12:30:06.389Z,956.59
2016-07-20T12:31:06.403Z,956.54
2016-07-20T12:32:06.390Z,956.49